Time;durP1;ratioP1;P1;durP2;ratioP2;P2;SDS_P1;SDS_P2;PMS_P1;PMS_P2;Temp;Humidity;BMP_temperature;BMP_pressure;BME280_temperature;BME280_humidity;BME280_pressure;Samples;Min_cycle;Max_cycle;Signal;HPM_P1;HPM_P2
2023/09/18 00:01:47;;;;;;;3.22;2.35;;;;;;;25.67;45.90;96487.31;4921156;28;20247;-86
2023/09/18 00:04:13;;;;;;;6.60;2.50;;;;;;;25.51;45.91;96457.38;4912789;28;20080;-86
2023/09/18 00:06:39;;;;;;;4.55;2.30;;;;;;;25.68;45.44;96480.09;4923803;28;20111;-85
2023/09/18 00:09:06;;;;;;;4.63;2.17;;;;;;;25.75;45.01;96488.16;4913109;28;20035;-85
2023/09/18 00:11:31;;;;;;;4.90;2.35;;;;;;;25.91;45.15;96488.78;4924021;28;20187;-86
2023/09/18 00:13:57;;;;;;;2.25;2.00;;;;;;;25.86;44.81;96481.09;4909350;28;20132;-86
2023/09/18 00:16:22;;;;;;;4.70;2.10;;;;;;;25.95;44.06;96480.84;4913052;28;20629;-86
2023/09/18 00:18:47;;;;;;;3.20;2.13;;;;;;;26.01;44.27;96478.63;4907664;28;20219;-86
2023/09/18 00:21:13;;;;;;;3.30;2.45;;;;;;;25.99;43.88;96476.31;4914075;28;20175;-85
2023/09/18 00:23:38;;;;;;;3.55;1.90;;;;;;;25.98;44.22;96458.78;4893861;28;20209;-86
2023/09/18 00:26:04;;;;;;;3.72;1.80;;;;;;;26.08;44.31;96468.03;4901406;28;20160;-86
2023/09/18 00:28:29;;;;;;;3.63;2.22;;;;;;;26.15;43.52;96465.47;4907605;28;20194;-86
2023/09/18 00:30:55;;;;;;;4.15;2.17;;;;;;;26.22;43.00;96460.22;4920288;28;20335;-85
2023/09/18 00:33:20;;;;;;;3.13;2.20;;;;;;;26.22;43.30;96464.75;4914274;28;20387;-86
2023/09/18 00:35:47;;;;;;;4.70;2.28;;;;;;;26.28;42.89;96474.00;4912131;28;20352;-86
2023/09/18 00:38:12;;;;;;;5.70;2.38;;;;;;;26.28;42.81;96472.09;4897269;28;20192;-86
2023/09/18 00:40:38;;;;;;;3.75;2.03;;;;;;;26.33;41.98;96463.75;4920229;28;20189;-86
2023/09/18 00:43:04;;;;;;;3.63;2.10;;;;;;;26.47;42.26;96470.38;4905260;28;20386;-86
2023/09/18 00:45:29;;;;;;;2.97;2.25;;;;;;;26.58;42.30;96473.94;4910757;28;20030;-86
2023/09/18 00:47:55;;;;;;;3.80;2.13;;;;;;;26.67;42.06;96482.44;4903739;28;20202;-86
2023/09/18 00:50:21;;;;;;;3.13;1.63;;;;;;;26.55;41.88;96482.69;4897069;28;20092;-85
2023/09/18 00:52:48;;;;;;;5.10;2.45;;;;;;;26.59;42.96;96464.78;4919618;28;20106;-85
2023/09/18 00:55:13;;;;;;;3.20;1.80;;;;;;;26.52;42.67;96448.69;4893396;28;20171;-85
2023/09/18 00:57:39;;;;;;;2.55;1.65;;;;;;;26.62;42.59;96479.31;4903745;28;20175;-85
2023/09/18 01:00:06;;;;;;;4.72;2.05;;;;;;;26.65;42.94;96484.72;4901390;28;20703;-86
2023/09/18 01:02:31;;;;;;;3.53;2.20;;;;;;;26.67;41.97;96460.31;4911080;28;20417;-86
2023/09/18 01:04:57;;;;;;;6.15;2.08;;;;;;;26.84;41.86;96493.66;4909027;28;20112;-86
2023/09/18 01:07:22;;;;;;;5.93;2.47;;;;;;;26.79;41.90;96499.34;4924956;28;20171;-85
2023/09/18 01:09:48;;;;;;;3.38;2.05;;;;;;;26.82;42.31;96509.28;4898303;28;20226;-84
2023/09/18 01:12:29;;;;;;;5.18;2.15;;;;;;;26.70;42.30;96497.72;4906938;28;20209;-86
2023/09/18 01:15:13;;;;;;;4.00;2.30;;;;;;;26.60;42.13;96487.69;4925497;28;20206;-85
2023/09/18 01:17:38;;;;;;;4.05;2.30;;;;;;;26.65;42.40;96506.06;4892937;28;20281;-85
2023/09/18 01:20:05;;;;;;;3.97;2.00;;;;;;;26.55;43.41;96512.03;4916508;28;20521;-85
2023/09/18 01:22:32;;;;;;;4.53;2.17;;;;;;;26.54;42.86;96511.28;4891699;28;20057;-86
2023/09/18 01:24:57;;;;;;;4.85;2.13;;;;;;;26.51;43.56;96513.88;4900670;28;20533;-86
2023/09/18 01:27:23;;;;;;;4.43;2.38;;;;;;;26.36;43.63;96515.66;4903966;28;20217;-85
2023/09/18 01:29:49;;;;;;;3.45;2.10;;;;;;;26.33;44.15;96511.03;4911145;28;20166;-86
2023/09/18 01:32:15;;;;;;;5.07;1.77;;;;;;;26.13;44.80;96505.06;4895998;28;20158;-86
2023/09/18 01:34:43;;;;;;;7.22;2.60;;;;;;;26.14;44.38;96506.63;4924548;28;20114;-86
2023/09/18 01:37:10;;;;;;;4.28;2.38;;;;;;;26.20;44.64;96523.84;4892723;28;20185;-85
2023/09/18 01:39:36;;;;;;;4.53;2.42;;;;;;;26.09;45.21;96530.94;4895632;28;20268;-85
2023/09/18 01:42:05;;;;;;;4.70;2.60;;;;;;;26.26;44.41;96529.63;4907914;28;20384;-86
2023/09/18 01:44:31;;;;;;;6.28;2.35;;;;;;;26.20;45.07;96525.75;4909912;28;20532;-85
2023/09/18 01:46:58;;;;;;;6.85;2.92;;;;;;;26.15;44.55;96506.25;4914557;28;20242;-86
2023/09/18 01:49:34;;;;;;;4.45;2.45;;;;;;;26.29;44.73;96519.00;4896471;28;20247;-86
2023/09/18 01:52:00;;;;;;;5.38;2.42;;;;;;;26.41;44.39;96522.53;4896227;28;20166;-87
2023/09/18 01:54:26;;;;;;;4.38;2.65;;;;;;;26.20;45.14;96515.06;4894477;28;20214;-87
2023/09/18 01:56:53;;;;;;;6.78;2.67;;;;;;;26.24;45.17;96510.56;4896879;28;20519;-85
2023/09/18 01:59:19;;;;;;;7.40;2.58;;;;;;;26.28;45.17;96525.47;4895373;28;20213;-84
2023/09/18 02:01:44;;;;;;;4.60;2.90;;;;;;;26.15;45.77;96526.84;4913689;28;20136;-85
2023/09/18 02:04:10;;;;;;;9.80;3.63;;;;;;;26.14;45.96;96514.63;4880981;28;20620;-85
2023/09/18 02:06:36;;;;;;;8.00;3.22;;;;;;;26.13;45.93;96513.88;4897913;28;20741;-86
2023/09/18 02:09:01;;;;;;;9.25;2.80;;;;;;;26.26;46.12;96534.97;4915714;28;20206;-86
2023/09/18 02:11:27;;;;;;;10.05;4.05;;;;;;;26.10;46.43;96514.59;4898142;28;20212;-85
2023/09/18 02:13:53;;;;;;;9.00;3.47;;;;;;;26.14;46.83;96514.63;4901948;28;20234;-86
2023/09/18 02:16:21;;;;;;;7.57;4.15;;;;;;;26.06;46.98;96503.06;4900610;28;20107;-86
2023/09/18 02:18:46;;;;;;;8.45;3.83;;;;;;;26.23;46.67;96493.00;4896026;28;20624;-85
2023/09/18 02:21:23;;;;;;;13.27;4.47;;;;;;;26.20;46.55;96478.50;4917850;28;20188;-85
2023/09/18 02:23:53;;;;;;;9.85;4.30;;;;;;;26.28;48.11;96466.75;4886486;28;20185;-83
2023/09/18 02:26:19;;;;;;;10.80;4.15;;;;;;;26.02;48.71;96461.50;4890946;28;20379;-87
2023/09/18 02:28:45;;;;;;;12.75;4.03;;;;;;;26.10;49.47;96476.47;4948774;28;20038;-86
2023/09/18 02:31:11;;;;;;;10.63;3.40;;;;;;;25.94;49.74;96460.59;4952425;28;20198;-85
2023/09/18 02:33:38;;;;;;;9.02;3.47;;;;;;;25.89;49.64;96461.72;4974515;28;20058;-84
2023/09/18 02:36:04;;;;;;;10.48;3.35;;;;;;;25.69;50.11;96438.97;4967577;28;20026;-86
2023/09/18 02:38:30;;;;;;;10.77;3.67;;;;;;;25.74;50.16;96466.09;4916580;28;20205;-84
2023/09/18 02:40:58;;;;;;;8.82;3.50;;;;;;;25.63;50.60;96448.41;4899211;28;20269;-87
2023/09/18 02:43:24;;;;;;;9.10;3.30;;;;;;;25.37;51.15;96404.66;4895107;28;20302;-86
2023/09/18 02:45:51;;;;;;;8.65;3.25;;;;;;;25.47;50.54;96419.25;4895535;28;20410;-87
2023/09/18 02:48:17;;;;;;;12.82;3.90;;;;;;;25.46;51.06;96442.44;4931381;28;20326;-86
2023/09/18 02:50:43;;;;;;;11.60;3.63;;;;;;;25.35;51.26;96449.53;4911995;28;20292;-85
2023/09/18 02:53:19;;;;;;;8.18;3.67;;;;;;;25.65;51.63;96488.78;4925928;28;20224;-85
2023/09/18 02:55:46;;;;;;;10.23;4.00;;;;;;;25.55;51.66;96504.28;4932361;28;20449;-84
2023/09/18 02:58:11;;;;;;;8.98;3.75;;;;;;;25.34;51.88;96511.94;4908357;28;20299;-86
2023/09/18 03:00:49;;;;;;;11.65;4.53;;;;;;;25.50;51.91;96520.59;4913514;28;20167;-85
2023/09/18 03:03:15;;;;;;;9.10;4.65;;;;;;;25.32;52.09;96527.53;4887738;28;20161;-86
2023/09/18 03:05:41;;;;;;;9.95;3.50;;;;;;;25.28;52.30;96518.72;4906410;28;20257;-86
2023/09/18 03:08:08;;;;;;;9.02;3.80;;;;;;;25.18;51.86;96518.16;4936026;28;20099;-85
2023/09/18 03:10:39;;;;;;;10.50;4.28;;;;;;;25.27;51.54;96517.16;4921317;28;20030;-85
2023/09/18 03:13:05;;;;;;;9.55;3.50;;;;;;;25.07;52.12;96519.88;4939814;28;20106;-86
2023/09/18 03:15:31;;;;;;;13.85;4.32;;;;;;;25.11;51.70;96506.63;4936635;28;20034;-85
2023/09/18 03:17:57;;;;;;;8.27;3.30;;;;;;;25.14;51.91;96509.34;4910656;28;20310;-85
2023/09/18 03:20:24;;;;;;;11.70;3.38;;;;;;;24.99;52.04;96518.22;4901246;28;20272;-86
2023/09/18 03:22:50;;;;;;;9.80;3.40;;;;;;;24.95;52.13;96504.84;4901012;28;20534;-86
2023/09/18 03:25:16;;;;;;;10.18;3.40;;;;;;;24.92;51.80;96512.78;4903893;28;20080;-86
2023/09/18 03:27:44;;;;;;;9.43;2.88;;;;;;;24.79;51.79;96504.94;4945682;28;20175;-85
2023/09/18 03:30:12;;;;;;;14.18;2.88;;;;;;;24.54;52.90;96477.06;4938053;28;20280;-85
2023/09/18 03:32:38;;;;;;;8.27;2.80;;;;;;;24.76;52.07;96495.00;4937464;28;20156;-83
2023/09/18 03:35:04;;;;;;;7.30;3.17;;;;;;;24.97;51.54;96488.50;4918563;28;20030;-84
2023/09/18 03:37:30;;;;;;;9.38;3.50;;;;;;;24.93;52.20;96498.31;4933794;28;20209;-85
2023/09/18 03:39:55;;;;;;;11.00;3.65;;;;;;;24.84;52.37;96467.34;4903877;28;20670;-84
2023/09/18 03:42:21;;;;;;;7.75;3.40;;;;;;;24.61;53.34;96478.00;4923295;28;20182;-86
2023/09/18 03:44:46;;;;;;;7.88;3.83;;;;;;;24.86;53.06;96483.78;4952571;28;20616;-85
2023/09/18 03:47:13;;;;;;;8.90;2.75;;;;;;;24.91;53.63;96484.59;4923263;28;20623;-85
2023/09/18 03:49:38;;;;;;;11.57;3.65;;;;;;;24.69;54.32;96478.88;4922966;28;20132;-84
2023/09/18 03:52:05;;;;;;;10.27;3.70;;;;;;;24.64;54.37;96473.84;4941059;28;20279;-86
2023/09/18 03:54:31;;;;;;;12.50;4.20;;;;;;;24.65;54.45;96473.50;4933489;28;20088;-86
2023/09/18 03:56:57;;;;;;;9.80;3.17;;;;;;;24.67;54.98;96451.84;4914707;28;20210;-86
2023/09/18 03:59:22;;;;;;;7.97;2.50;;;;;;;24.53;55.89;96439.03;4884538;28;20201;-86
2023/09/18 04:01:47;;;;;;;11.10;2.90;;;;;;;24.53;55.68;96444.38;4886439;28;20041;-84
2023/09/18 04:04:13;;;;;;;7.82;3.03;;;;;;;24.35;55.53;96422.78;4964352;28;20077;-86
2023/09/18 04:06:43;;;;;;;7.78;3.58;;;;;;;24.54;55.40;96434.47;4915798;28;20241;-85
2023/09/18 04:09:09;;;;;;;8.13;3.10;;;;;;;24.18;56.23;96408.00;4917710;28;20046;-86
2023/09/18 04:11:35;;;;;;;9.02;3.55;;;;;;;24.22;56.84;96411.50;4930878;28;20142;-85
2023/09/18 04:14:03;;;;;;;10.60;2.95;;;;;;;24.24;56.19;96422.56;4935632;28;20250;-84
2023/09/18 04:16:35;;;;;;;5.80;3.53;;;;;;;24.26;56.62;96436.25;4953703;28;20038;-86
2023/09/18 04:19:01;;;;;;;8.00;3.20;;;;;;;24.16;56.85;96449.38;4927139;28;20183;-86
2023/09/18 04:21:27;;;;;;;7.95;3.85;;;;;;;24.19;57.20;96438.78;4933363;28;20035;-86
2023/09/18 04:23:57;;;;;;;9.63;2.90;;;;;;;23.96;57.34;96401.53;4959910;28;20118;-87
2023/09/18 04:26:24;;;;;;;6.70;3.17;;;;;;;24.02;57.75;96426.69;4948633;28;20121;-87
2023/09/18 04:28:49;;;;;;;10.32;3.13;;;;;;;23.77;57.86;96409.44;4965515;28;20030;-86
2023/09/18 04:31:16;;;;;;;8.32;3.45;;;;;;;23.74;57.93;96406.38;4972344;28;20042;-87
2023/09/18 04:33:41;;;;;;;8.00;2.78;;;;;;;23.87;57.54;96452.25;4961675;28;20062;-87
2023/09/18 04:36:07;;;;;;;7.07;3.63;;;;;;;23.73;58.42;96452.69;4941500;28;20578;-84
2023/09/18 04:38:33;;;;;;;8.90;3.17;;;;;;;23.80;57.58;96438.75;4939939;28;20502;-86
2023/09/18 04:41:01;;;;;;;9.88;4.18;;;;;;;23.82;57.52;96422.50;4928524;28;20026;-86
2023/09/18 04:43:29;;;;;;;5.65;2.70;;;;;;;23.92;57.86;96445.88;4953761;28;20033;-87
2023/09/18 04:45:55;;;;;;;6.88;2.83;;;;;;;23.74;58.20;96448.91;4957501;28;20034;-85
2023/09/18 04:48:21;;;;;;;7.47;3.55;;;;;;;23.77;58.10;96457.28;4958946;28;20038;-85
2023/09/18 04:50:46;;;;;;;6.00;2.83;;;;;;;23.91;58.06;96468.28;4960237;28;20121;-86
2023/09/18 04:53:13;;;;;;;6.35;2.92;;;;;;;23.91;58.03;96473.59;4947713;28;20057;-88
2023/09/18 04:55:39;;;;;;;8.05;3.33;;;;;;;23.89;57.73;96484.56;4949985;28;20022;-86
2023/09/18 04:58:05;;;;;;;6.78;3.47;;;;;;;23.74;58.02;96486.13;4937775;28;20096;-85
2023/09/18 05:00:31;;;;;;;10.50;3.72;;;;;;;23.67;58.43;96488.63;4941196;28;20030;-86
2023/09/18 05:03:00;;;;;;;10.15;3.50;;;;;;;23.69;58.88;96502.34;4957326;28;20026;-85
2023/09/18 05:05:26;;;;;;;9.30;3.50;;;;;;;23.64;59.32;96499.19;4937823;28;20577;-84
2023/09/18 05:07:51;;;;;;;10.38;3.85;;;;;;;23.59;59.12;96483.50;4927272;28;20034;-87
2023/09/18 05:10:17;;;;;;;10.25;3.50;;;;;;;23.42;59.03;96444.78;4913248;28;20391;-86
2023/09/18 05:12:45;;;;;;;7.50;3.38;;;;;;;23.38;59.47;96436.75;4943877;28;20649;-86
2023/09/18 05:15:12;;;;;;;8.05;3.58;;;;;;;23.54;59.50;96449.97;4898018;28;20719;-87
2023/09/18 05:17:47;;;;;;;10.05;3.33;;;;;;;23.55;58.86;96419.66;4897522;28;20197;-86
2023/09/18 05:20:16;;;;;;;9.60;3.75;;;;;;;23.62;58.92;96451.69;4879703;28;20186;-86
2023/09/18 05:22:45;;;;;;;9.27;3.72;;;;;;;23.56;59.36;96447.75;4898433;28;20201;-86
2023/09/18 05:25:11;;;;;;;9.55;3.50;;;;;;;23.51;59.64;96445.34;4926837;28;20023;-86
2023/09/18 05:27:47;;;;;;;11.35;3.90;;;;;;;23.55;58.89;96436.34;4898836;28;20038;-85
2023/09/18 05:30:21;;;;;;;9.07;3.35;;;;;;;23.68;58.70;96455.63;4907534;28;20035;-85
2023/09/18 05:32:47;;;;;;;6.20;3.53;;;;;;;23.44;60.15;96456.63;4903864;28;20194;-86
2023/09/18 05:35:14;;;;;;;9.40;3.35;;;;;;;23.40;59.86;96436.41;4930211;28;20023;-86
2023/09/18 05:37:43;;;;;;;8.40;2.90;;;;;;;23.51;59.97;96458.66;4888832;28;20213;-85
2023/09/18 05:40:10;;;;;;;7.88;3.50;;;;;;;23.63;59.14;96471.06;4884130;28;20651;-84
2023/09/18 05:42:36;;;;;;;7.97;3.03;;;;;;;23.50;59.66;96473.06;4922827;28;20509;-85
2023/09/18 05:45:04;;;;;;;9.65;3.63;;;;;;;23.55;59.83;96475.44;4927776;28;20236;-86
2023/09/18 05:47:33;;;;;;;7.50;3.50;;;;;;;23.48;59.86;96470.00;4914708;28;20220;-85
2023/09/18 05:49:59;;;;;;;9.80;3.72;;;;;;;23.43;59.98;96478.22;4910766;28;20485;-86
2023/09/18 05:52:25;;;;;;;6.43;3.75;;;;;;;23.49;59.90;96482.13;4933791;28;20030;-85
2023/09/18 05:54:50;;;;;;;8.05;3.65;;;;;;;23.44;59.67;96477.09;4933059;28;20461;-86
2023/09/18 05:57:16;;;;;;;9.48;4.30;;;;;;;23.34;60.79;96470.44;4923511;28;20336;-86
2023/09/18 05:59:44;;;;;;;8.70;4.32;;;;;;;23.44;60.58;96488.50;4896394;28;20553;-85
2023/09/18 06:02:10;;;;;;;7.97;3.22;;;;;;;23.52;60.42;96500.81;4929209;28;20100;-86
2023/09/18 06:04:36;;;;;;;6.53;3.60;;;;;;;23.55;60.01;96510.75;4932345;28;20389;-86
2023/09/18 06:07:05;;;;;;;9.48;2.97;;;;;;;23.61;59.98;96503.28;4934708;28;20034;-86
2023/09/18 06:09:30;;;;;;;7.53;4.05;;;;;;;23.60;60.34;96501.00;4925241;28;20479;-84
2023/09/18 06:11:56;;;;;;;11.25;3.50;;;;;;;23.59;59.96;96504.75;4926479;28;20048;-85
2023/09/18 06:14:22;;;;;;;8.32;3.53;;;;;;;23.61;60.63;96527.19;4913551;28;20046;-86
2023/09/18 06:16:48;;;;;;;7.25;3.20;;;;;;;23.56;60.42;96517.63;4920651;28;20248;-85
2023/09/18 06:19:14;;;;;;;8.70;3.63;;;;;;;23.37;61.08;96512.22;4911640;28;20264;-86
2023/09/18 06:21:40;;;;;;;10.77;3.58;;;;;;;23.59;60.28;96524.13;4901394;28;20264;-85
2023/09/18 06:24:06;;;;;;;11.40;3.83;;;;;;;23.53;60.55;96533.50;4910948;28;20184;-86
2023/09/18 06:26:31;;;;;;;10.88;3.03;;;;;;;23.51;60.44;96533.03;4890666;28;20378;-85
2023/09/18 06:28:57;;;;;;;7.05;3.50;;;;;;;23.47;60.00;96521.56;4917117;28;20491;-86
2023/09/18 06:31:23;;;;;;;7.03;3.03;;;;;;;23.42;60.74;96516.53;4906582;28;20218;-84
2023/09/18 06:33:48;;;;;;;7.72;3.45;;;;;;;23.63;60.02;96543.59;4925850;28;20530;-86
2023/09/18 06:36:14;;;;;;;5.43;2.95;;;;;;;23.52;60.56;96516.00;4923122;28;20276;-86
2023/09/18 06:38:39;;;;;;;9.05;3.13;;;;;;;23.55;60.66;96517.97;4935003;28;20291;-85
2023/09/18 06:41:05;;;;;;;6.82;3.40;;;;;;;23.69;59.72;96531.56;4931214;28;20199;-85
2023/09/18 06:43:30;;;;;;;7.97;3.28;;;;;;;23.72;59.97;96546.06;4923176;28;20080;-86
2023/09/18 06:45:57;;;;;;;8.80;3.15;;;;;;;23.73;60.01;96563.53;4924073;28;20076;-86
2023/09/18 06:48:24;;;;;;;6.90;3.10;;;;;;;23.46;60.67;96522.69;4918599;28;20233;-86
2023/09/18 06:50:50;;;;;;;8.18;3.28;;;;;;;23.72;59.88;96546.84;4947170;28;20041;-85
2023/09/18 06:53:15;;;;;;;6.30;3.33;;;;;;;23.71;59.45;96539.97;4941230;28;20675;-86
2023/09/18 06:55:41;;;;;;;6.40;2.95;;;;;;;23.64;60.43;96534.50;4910476;28;20258;-86
2023/09/18 06:58:06;;;;;;;5.90;2.95;;;;;;;23.68;59.96;96529.25;4903255;28;20267;-86
2023/09/18 07:00:32;;;;;;;6.72;2.97;;;;;;;23.65;59.95;96537.94;4904928;28;20280;-86
2023/09/18 07:02:57;;;;;;;6.15;2.67;;;;;;;23.83;59.39;96549.75;4906931;28;20091;-86
2023/09/18 07:05:22;;;;;;;6.45;2.95;;;;;;;23.74;59.44;96531.31;4918886;28;20184;-86
2023/09/18 07:07:48;;;;;;;5.28;2.42;;;;;;;23.77;59.19;96531.72;4942477;28;20138;-84
2023/09/18 07:10:16;;;;;;;7.63;3.08;;;;;;;23.81;59.38;96543.22;4917821;28;20236;-86
2023/09/18 07:12:41;;;;;;;7.15;2.80;;;;;;;23.93;59.12;96551.13;4907114;28;20286;-84
2023/09/18 07:15:07;;;;;;;5.63;2.40;;;;;;;23.91;58.88;96543.47;4919664;28;20115;-86
2023/09/18 07:17:33;;;;;;;5.25;2.38;;;;;;;23.78;58.46;96517.31;4919242;28;20610;-85
2023/09/18 07:20:00;;;;;;;4.80;2.80;;;;;;;23.83;58.24;96541.78;4899158;28;20876;-86
2023/09/18 07:22:25;;;;;;;6.47;3.28;;;;;;;23.96;58.67;96550.44;4945198;28;20432;-85
2023/09/18 07:24:50;;;;;;;5.57;2.40;;;;;;;24.15;58.18;96554.25;4910212;28;20421;-86
2023/09/18 07:27:16;;;;;;;7.47;2.55;;;;;;;23.95;58.88;96532.91;4927871;28;20775;-87
2023/09/18 07:29:41;;;;;;;6.25;2.72;;;;;;;24.06;58.55;96549.88;4918774;28;20035;-86
2023/09/18 07:32:07;;;;;;;6.55;2.50;;;;;;;24.11;58.48;96562.91;4929689;28;20027;-86
2023/09/18 07:34:33;;;;;;;4.20;2.65;;;;;;;24.07;58.56;96535.44;4917308;28;20063;-86
2023/09/18 07:36:58;;;;;;;5.22;2.42;;;;;;;24.21;58.28;96542.19;4885447;28;20367;-87
2023/09/18 07:39:24;;;;;;;4.93;2.33;;;;;;;24.25;57.88;96545.72;4916006;28;20194;-86
2023/09/18 07:41:49;;;;;;;5.80;2.40;;;;;;;24.35;57.99;96566.44;4884239;28;20410;-87
2023/09/18 07:44:19;;;;;;;4.43;2.67;;;;;;;24.43;57.91;96568.09;4914194;28;20496;-85
2023/09/18 07:46:45;;;;;;;6.45;2.55;;;;;;;24.22;58.00;96559.72;4883132;28;20205;-86
2023/09/18 07:49:10;;;;;;;4.65;2.25;;;;;;;24.29;57.97;96557.94;4908400;28;20211;-85
2023/09/18 07:51:35;;;;;;;5.40;2.60;;;;;;;24.25;57.53;96556.34;4880211;28;20163;-86
2023/09/18 07:54:01;;;;;;;4.22;2.20;;;;;;;24.26;57.23;96553.31;4901761;28;20115;-86
2023/09/18 07:56:27;;;;;;;2.80;1.70;;;;;;;24.39;56.85;96566.50;4881959;28;20295;-86
2023/09/18 07:58:52;;;;;;;5.20;2.40;;;;;;;24.35;57.65;96574.44;4899559;28;20216;-85
2023/09/18 08:01:18;;;;;;;4.75;1.98;;;;;;;24.11;57.37;96556.81;4906573;28;20183;-86
2023/09/18 08:03:43;;;;;;;5.88;1.92;;;;;;;24.12;57.57;96576.97;4896512;28;20307;-85
2023/09/18 08:06:09;;;;;;;7.10;2.33;;;;;;;24.28;56.61;96582.25;4914867;28;20639;-87
2023/09/18 08:08:34;;;;;;;3.72;2.55;;;;;;;24.07;57.35;96578.00;4900932;28;20233;-83
2023/09/18 08:11:08;;;;;;;5.32;2.30;;;;;;;24.20;56.25;96560.06;4883152;28;20305;-86
2023/09/18 08:13:34;;;;;;;4.97;2.35;;;;;;;24.17;56.08;96536.03;4895294;28;20236;-86
2023/09/18 08:15:59;;;;;;;4.80;2.10;;;;;;;24.22;56.06;96557.81;4898773;28;20257;-87
2023/09/18 08:18:26;;;;;;;3.00;1.40;;;;;;;24.17;56.39;96581.25;4896031;28;20685;-85
2023/09/18 08:20:53;;;;;;;4.70;1.92;;;;;;;24.31;56.71;96581.53;4879949;28;20214;-86
2023/09/18 08:23:18;;;;;;;3.20;1.58;;;;;;;24.00;56.80;96551.25;4874659;28;20242;-86
2023/09/18 08:25:44;;;;;;;2.78;1.90;;;;;;;24.24;56.33;96587.50;4900391;28;20284;-86
2023/09/18 08:28:09;;;;;;;6.10;2.20;;;;;;;24.05;56.99;96558.97;4900403;28;20256;-85
2023/09/18 08:30:36;;;;;;;6.93;2.03;;;;;;;24.24;56.73;96571.53;4891243;28;20176;-87
2023/09/18 08:33:02;;;;;;;3.85;1.90;;;;;;;24.19;56.28;96574.47;4908798;28;20675;-86
2023/09/18 08:35:29;;;;;;;4.40;1.80;;;;;;;24.25;56.60;96577.63;4899822;28;20201;-87
2023/09/18 08:37:56;;;;;;;6.53;2.22;;;;;;;24.25;56.87;96582.97;4903618;28;20217;-86
2023/09/18 08:40:22;;;;;;;2.60;1.58;;;;;;;24.40;56.06;96568.84;4900650;28;20613;-86
2023/09/18 08:42:53;;;;;;;3.67;1.55;;;;;;;24.68;56.69;96552.66;4919491;28;20154;-87
2023/09/18 08:45:35;;;;;;;4.05;1.67;;;;;;;24.84;55.68;96557.13;4917857;28;20276;-85
2023/09/18 08:48:01;;;;;;;3.63;1.63;;;;;;;24.93;54.24;96578.22;4914589;28;20088;-86
2023/09/18 08:50:26;;;;;;;4.47;2.28;;;;;;;24.91;55.27;96572.47;4894544;28;20193;-86
2023/09/18 08:52:52;;;;;;;3.80;1.70;;;;;;;24.92;55.17;96582.78;4884187;28;20216;-86
2023/09/18 08:55:18;;;;;;;3.25;2.10;;;;;;;25.08;54.00;96574.69;4898754;28;20238;-84
2023/09/18 08:57:44;;;;;;;3.78;1.73;;;;;;;24.85;55.10;96562.09;4911438;28;20100;-87
2023/09/18 09:00:16;;;;;;;3.22;1.85;;;;;;;24.82;54.78;96586.78;4925001;28;20633;-87
2023/09/18 09:02:41;;;;;;;3.58;2.00;;;;;;;24.91;54.30;96586.56;4920757;28;20699;-85
2023/09/18 09:05:07;;;;;;;2.35;1.60;;;;;;;24.80;54.90;96577.59;4886048;28;20328;-85
2023/09/18 09:07:32;;;;;;;3.40;1.58;;;;;;;24.71;53.74;96577.03;4906434;28;20251;-86
2023/09/18 09:09:58;;;;;;;3.17;1.38;;;;;;;24.82;53.74;96600.09;4901089;28;20737;-86
2023/09/18 09:12:55;;;;;;;2.47;1.50;;;;;;;24.76;54.88;96588.19;4886079;28;20389;-84
2023/09/18 09:15:32;;;;;;;3.80;1.65;;;;;;;24.93;53.83;96583.53;4901017;28;20214;-84
2023/09/18 09:18:06;;;;;;;3.10;1.85;;;;;;;25.12;53.52;96586.19;4898182;28;20198;-86
2023/09/18 09:20:32;;;;;;;2.65;1.50;;;;;;;25.10;53.71;96583.09;4902167;28;20202;-85
2023/09/18 09:23:01;;;;;;;4.97;1.42;;;;;;;25.24;52.19;96578.03;4885863;28;20178;-86
2023/09/18 09:25:31;;;;;;;4.10;1.83;;;;;;;25.26;52.97;96598.22;4902498;28;20633;-86
2023/09/18 09:27:57;;;;;;;2.90;1.52;;;;;;;25.26;52.98;96587.56;4884901;28;20213;-86
2023/09/18 09:30:25;;;;;;;4.40;1.38;;;;;;;24.99;52.11;96577.56;4917776;28;20289;-84
2023/09/18 09:32:52;;;;;;;2.33;1.20;;;;;;;24.88;52.98;96570.50;4903832;28;20190;-85
2023/09/18 09:35:29;;;;;;;1.40;1.25;;;;;;;24.75;53.38;96591.19;4883442;28;20111;-85
2023/09/18 09:38:07;;;;;;;3.10;1.48;;;;;;;25.16;53.54;96586.25;4903271;28;20270;-87
2023/09/18 09:40:34;;;;;;;2.90;1.42;;;;;;;25.08;53.22;96577.34;4885497;28;20373;-88
2023/09/18 09:43:04;;;;;;;4.93;1.50;;;;;;;25.11;52.96;96581.97;4912346;28;20150;-85
2023/09/18 09:45:35;;;;;;;1.55;1.20;;;;;;;25.40;52.66;96606.47;4911634;28;20268;-88
2023/09/18 09:48:02;;;;;;;3.42;1.30;;;;;;;25.30;52.58;96588.41;4908505;28;20203;-87
2023/09/18 09:50:28;;;;;;;1.60;1.40;;;;;;;25.18;53.92;96584.00;4897091;28;20210;-85
2023/09/18 09:52:54;;;;;;;5.53;1.65;;;;;;;24.98;53.90;96556.63;4880769;28;20354;-87
2023/09/18 09:55:30;;;;;;;4.25;1.20;;;;;;;25.23;53.61;96586.38;4883549;28;20174;-84
2023/09/18 09:58:14;;;;;;;3.22;1.40;;;;;;;25.28;53.26;96593.34;4920817;28;20022;-86
2023/09/18 10:00:43;;;;;;;3.43;1.50;;;;;;;25.37;52.36;96599.19;4915694;28;20041;-87
2023/09/18 10:03:11;;;;;;;6.53;1.58;;;;;;;25.35;52.59;96596.13;4893785;28;20281;-87
2023/09/18 10:05:41;;;;;;;3.92;1.35;;;;;;;25.00;53.03;96576.47;4898912;28;20202;-86
2023/09/18 10:08:13;;;;;;;4.10;1.45;;;;;;;25.30;52.81;96612.41;4885318;28;20284;-87
2023/09/18 10:10:51;;;;;;;3.42;1.50;;;;;;;25.50;52.10;96597.09;4885724;28;20265;-88
2023/09/18 10:13:39;;;;;;;2.10;1.40;;;;;;;25.32;53.17;96594.16;4912613;28;20204;-85
2023/09/18 10:16:07;;;;;;;2.63;1.20;;;;;;;25.33;52.32;96601.03;4915675;28;20356;-87
2023/09/18 10:18:47;;;;;;;3.78;1.30;;;;;;;25.41;52.53;96594.69;4891504;28;20195;-87
2023/09/18 10:21:35;;;;;;;3.55;1.48;;;;;;;25.65;51.63;96595.44;4911324;28;20240;-87
2023/09/18 10:24:18;;;;;;;1.63;1.15;;;;;;;25.54;52.90;96619.25;4898240;28;20303;-86
2023/09/18 10:26:50;;;;;;;2.47;1.40;;;;;;;25.47;52.40;96614.59;4895630;28;20205;-87
2023/09/18 10:29:18;;;;;;;2.55;1.30;;;;;;;25.17;53.53;96591.22;4901754;28;20634;-84
2023/09/18 10:31:44;;;;;;;2.95;1.20;;;;;;;25.39;53.27;96605.69;4891870;28;20635;-87
2023/09/18 10:34:11;;;;;;;3.13;1.73;;;;;;;25.44;51.53;96593.97;4916060;28;20742;-88
2023/09/18 10:36:37;;;;;;;3.13;1.55;;;;;;;25.56;52.84;96601.00;4894876;28;20360;-87
2023/09/18 10:39:08;;;;;;;2.60;1.30;;;;;;;25.69;52.99;96593.63;4872579;28;20194;-86
2023/09/18 10:41:36;;;;;;;4.97;1.60;;;;;;;25.60;52.15;96610.63;4884028;28;20103;-88
2023/09/18 10:44:04;;;;;;;4.03;1.48;;;;;;;25.43;52.55;96595.09;4880341;28;20085;-86
2023/09/18 10:46:36;;;;;;;3.00;1.40;;;;;;;25.57;51.81;96570.56;4900175;28;20570;-88
2023/09/18 10:49:03;;;;;;;2.97;1.70;;;;;;;25.77;52.50;96595.25;4879420;28;20281;-87
2023/09/18 10:51:29;;;;;;;3.78;1.60;;;;;;;25.78;51.76;96588.78;4883232;28;20400;-87
2023/09/18 10:53:56;;;;;;;2.08;1.25;;;;;;;25.68;51.31;96589.41;4899749;28;20167;-85
2023/09/18 10:56:22;;;;;;;4.53;1.52;;;;;;;25.58;52.33;96594.22;4911762;28;20115;-87
2023/09/18 10:58:56;;;;;;;3.38;1.75;;;;;;;25.77;52.09;96597.91;4898226;28;20183;-86
2023/09/18 11:01:23;;;;;;;3.10;1.45;;;;;;;25.37;51.61;96591.94;4914135;28;20773;-88
2023/09/18 11:03:50;;;;;;;4.15;1.48;;;;;;;25.54;52.25;96593.38;4895159;28;20217;-88
2023/09/18 11:06:17;;;;;;;2.75;1.20;;;;;;;25.22;53.10;96571.50;4877677;28;20265;-85
2023/09/18 11:08:46;;;;;;;1.98;1.48;;;;;;;25.42;52.06;96590.91;4899911;28;20743;-87
2023/09/18 11:11:14;;;;;;;2.72;1.52;;;;;;;25.64;51.63;96584.00;4900424;28;20652;-87
2023/09/18 11:13:41;;;;;;;4.03;1.60;;;;;;;25.52;52.27;96566.31;4914208;28;20086;-87
2023/09/18 11:16:25;;;;;;;2.85;1.30;;;;;;;25.75;52.37;96582.25;4886095;28;20265;-88
2023/09/18 11:18:54;;;;;;;3.50;1.77;;;;;;;25.73;52.29;96573.09;4901128;28;20284;-88
2023/09/18 11:21:30;;;;;;;3.70;1.40;;;;;;;25.89;51.73;96580.94;4915439;28;20654;-88
2023/09/18 11:24:01;;;;;;;3.30;1.42;;;;;;;25.90;53.08;96579.81;4896725;28;20289;-88
2023/09/18 11:26:34;;;;;;;2.50;1.50;;;;;;;26.02;52.06;96586.88;4888456;28;20209;-88
2023/09/18 11:29:15;;;;;;;3.67;1.90;;;;;;;26.01;52.62;96583.44;4868325;28;20104;-86
2023/09/18 11:32:03;;;;;;;3.20;1.48;;;;;;;26.03;51.04;96569.72;4893928;28;20275;-89
2023/09/18 11:34:34;;;;;;;2.90;1.45;;;;;;;25.88;52.72;96582.84;4888744;28;20789;-87